Time;durP1;ratioP1;P1;durP2;ratioP2;P2;SDS_P1;SDS_P2;PMS_P1;PMS_P2;Temp;Humidity;BMP_temperature;BMP_pressure;BME280_temperature;BME280_humidity;BME280_pressure;Samples;Min_cycle;Max_cycle;Signal;HPM_P1;HPM_P2
2023/04/29 00:01:34;;;;;;;5.32;3.80;;;19.40;58.50;;;;;;5019511;28;20494;-61
2023/04/29 00:03:59;;;;;;;6.30;4.00;;;19.40;59.10;;;;;;5021199;28;20518;-60
2023/04/29 00:06:25;;;;;;;4.72;3.40;;;19.40;58.40;;;;;;5020568;28;20109;-61
2023/04/29 00:08:52;;;;;;;4.45;3.47;;;19.40;58.40;;;;;;5021086;28;20128;-61
2023/04/29 00:11:17;;;;;;;6.68;3.90;;;19.40;58.40;;;;;;5021237;28;20361;-61
2023/04/29 00:13:42;;;;;;;4.75;3.38;;;19.40;58.40;;;;;;5020367;28;20025;-59
2023/04/29 00:16:11;;;;;;;5.22;3.53;;;19.40;58.40;;;;;;5021266;28;20154;-61
2023/04/29 00:18:36;;;;;;;5.28;3.40;;;19.40;58.40;;;;;;5018256;28;20111;-61
2023/04/29 00:21:04;;;;;;;3.75;3.40;;;19.40;58.50;;;;;;5025143;28;20033;-61
2023/04/29 00:23:31;;;;;;;5.60;3.35;;;19.40;58.50;;;;;;5018037;28;20515;-60
2023/04/29 00:25:56;;;;;;;3.67;3.17;;;19.40;58.50;;;;;;5020035;28;20102;-61
2023/04/29 00:28:22;;;;;;;5.35;3.40;;;19.40;58.40;;;;;;5018762;28;20279;-61
2023/04/29 00:30:47;;;;;;;4.47;3.17;;;19.40;58.40;;;;;;5018353;28;20640;-61
2023/04/29 00:33:13;;;;;;;3.70;2.67;;;19.40;58.50;;;;;;5020770;28;20033;-61
2023/04/29 00:35:38;;;;;;;3.90;3.15;;;19.40;58.50;;;;;;5021782;28;20068;-61
2023/04/29 00:38:04;;;;;;;5.40;3.03;;;19.40;58.60;;;;;;5018185;28;20491;-60
2023/04/29 00:40:29;;;;;;;3.70;2.70;;;19.40;58.50;;;;;;5018327;28;20065;-61
2023/04/29 00:42:54;;;;;;;3.35;2.75;;;19.40;58.60;;;;;;5019080;28;20032;-61
2023/04/29 00:45:20;;;;;;;5.80;2.67;;;19.40;58.60;;;;;;5020184;28;20244;-61
2023/04/29 00:47:45;;;;;;;5.03;2.80;;;19.40;58.60;;;;;;5014671;28;20031;-61
2023/04/29 00:50:11;;;;;;;3.78;2.67;;;19.40;58.60;;;;;;5019212;28;20029;-61
2023/04/29 00:52:38;;;;;;;4.65;3.67;;;19.40;58.70;;;;;;5016570;28;20111;-61
2023/04/29 00:55:06;;;;;;;2.97;2.50;;;19.40;58.70;;;;;;5016608;28;20060;-61
2023/04/29 00:57:33;;;;;;;3.92;2.70;;;19.30;58.60;;;;;;5016773;28;20584;-60
2023/04/29 00:59:59;;;;;;;5.13;3.10;;;19.30;58.70;;;;;;4995736;28;20025;-60
2023/04/29 01:02:25;;;;;;;3.25;2.63;;;19.30;58.70;;;;;;5018477;28;20494;-60
2023/04/29 01:04:51;;;;;;;4.60;2.80;;;19.30;58.70;;;;;;5024831;28;20053;-59
2023/04/29 01:07:35;;;;;;;4.35;2.83;;;19.30;58.70;;;;;;5023014;28;20103;-60
2023/04/29 01:10:03;;;;;;;7.10;2.95;;;19.30;58.70;;;;;;5017763;28;20029;-60
2023/04/29 01:13:00;;;;;;;4.00;2.28;;;19.30;58.70;;;;;;5019769;28;20530;-59
2023/04/29 01:15:33;;;;;;;2.90;2.55;;;19.30;58.70;;;;;;5004416;28;20017;-58
2023/04/29 01:18:19;;;;;;;5.00;2.70;;;19.30;58.70;;;;;;5015197;28;20026;-60
2023/04/29 01:20:45;;;;;;;;;;;19.30;58.70;;;;;;5019161;28;20037;-60
2023/04/29 01:23:11;;;;;;;3.28;2.78;;;19.30;58.80;;;;;;5017769;28;19922;-59
2023/04/29 01:25:37;;;;;;;4.00;2.45;;;19.30;58.80;;;;;;5020417;28;20502;-59
2023/04/29 01:28:08;;;;;;;3.88;2.90;;;19.30;58.80;;;;;;5016303;28;20036;-60
2023/04/29 01:31:05;;;;;;;3.22;2.40;;;19.30;58.80;;;;;;5016491;28;20034;-59
2023/04/29 01:33:47;;;;;;;5.00;2.75;;;19.30;58.70;;;;;;4996752;28;20034;-59
2023/04/29 01:36:43;;;;;;;5.18;2.60;;;19.30;58.70;;;;;;5018166;28;20339;-59
2023/04/29 01:39:30;;;;;;;3.25;2.53;;;19.30;58.70;;;;;;5016558;28;20156;-59
2023/04/29 01:45:18;;;;;;;2.90;2.53;;;19.40;58.60;;;;;;5014467;28;20117;-59
2023/04/29 01:47:45;;;;;;;5.32;2.70;;;19.40;58.60;;;;;;5016742;28;20032;-59
2023/04/29 01:50:10;;;;;;;3.20;2.28;;;19.40;58.60;;;;;;5011828;28;20041;-60
2023/04/29 01:52:36;;;;;;;3.55;2.40;;;19.40;58.50;;;;;;5014364;28;20057;-60
2023/04/29 01:55:02;;;;;;;3.97;2.20;;;19.40;58.50;;;;;;5015150;28;20021;-60
2023/04/29 01:57:28;;;;;;;3.42;2.42;;;19.40;58.50;;;;;;5014774;28;20164;-58
2023/04/29 01:59:54;;;;;;;3.08;2.28;;;19.40;58.50;;;;;;5015760;28;20104;-59
2023/04/29 02:02:22;;;;;;;4.50;2.17;;;19.40;58.40;;;;;;5019324;28;20041;-59
2023/04/29 02:04:48;;;;;;;2.53;1.90;;;19.40;58.40;;;;;;4988981;28;20029;-60
2023/04/29 02:07:14;;;;;;;4.72;2.25;;;19.40;58.50;;;;;;5017526;28;20033;-59
2023/04/29 02:09:39;;;;;;;4.22;2.67;;;19.30;58.50;;;;;;5017267;28;20070;-60
2023/04/29 02:12:05;;;;;;;2.42;2.08;;;19.30;58.50;;;;;;5015731;28;20309;-60
2023/04/29 02:14:30;;;;;;;3.42;1.88;;;19.30;58.60;;;;;;5016524;28;20109;-59
2023/04/29 02:16:56;;;;;;;3.28;1.88;;;19.30;58.70;;;;;;5016603;28;20029;-58
2023/04/29 02:19:21;;;;;;;3.35;2.30;;;19.30;58.70;;;;;;4996697;28;20041;-59
2023/04/29 02:21:47;;;;;;;3.35;2.10;;;19.30;58.80;;;;;;4991859;28;20445;-60
2023/04/29 02:24:12;;;;;;;3.17;2.05;;;19.20;59.40;;;;;;5020369;28;20486;-60
2023/04/29 02:26:38;;;;;;;2.72;2.25;;;19.20;58.80;;;;;;5008774;28;20218;-58
2023/04/29 02:29:03;;;;;;;2.65;1.95;;;19.20;58.80;;;;;;5011565;28;20116;-60
2023/04/29 02:31:29;;;;;;;3.25;1.95;;;19.20;58.90;;;;;;5019953;28;20398;-61
2023/04/29 02:33:54;;;;;;;2.90;2.20;;;19.20;58.90;;;;;;5020676;28;20022;-59
2023/04/29 02:36:20;;;;;;;2.75;1.75;;;19.20;58.90;;;;;;5022324;28;20033;-60
2023/04/29 02:38:46;;;;;;;1.77;1.65;;;19.20;59.00;;;;;;5021649;28;20247;-60
2023/04/29 02:41:18;;;;;;;3.50;1.70;;;19.20;59.10;;;;;;5022449;28;20045;-60
2023/04/29 02:43:44;;;;;;;2.30;1.73;;;19.20;58.90;;;;;;5021632;28;20057;-59
2023/04/29 02:46:09;;;;;;;3.42;1.95;;;19.20;59.10;;;;;;5020612;28;20063;-60
2023/04/29 02:48:35;;;;;;;3.75;2.45;;;19.20;59.00;;;;;;5020835;28;20030;-59
2023/04/29 02:51:01;;;;;;;2.30;1.88;;;19.20;59.10;;;;;;5015755;28;20034;-60
2023/04/29 02:53:26;;;;;;;3.38;2.20;;;19.20;59.00;;;;;;5022333;28;20618;-60
2023/04/29 02:55:52;;;;;;;3.53;1.88;;;19.20;59.00;;;;;;5022162;28;20594;-59
2023/04/29 02:58:17;;;;;;;2.35;1.80;;;19.20;59.00;;;;;;5021192;28;20025;-60
2023/04/29 03:00:43;;;;;;;3.40;2.15;;;19.30;59.00;;;;;;5021019;28;20518;-58
2023/04/29 03:03:09;;;;;;;2.80;1.73;;;19.20;58.90;;;;;;5021747;28;20666;-60
2023/04/29 03:05:35;;;;;;;3.28;1.80;;;19.20;58.90;;;;;;5020245;28;20072;-59
2023/04/29 03:08:02;;;;;;;2.00;1.80;;;19.20;58.80;;;;;;5020411;28;20049;-60
2023/04/29 03:10:27;;;;;;;2.53;1.90;;;19.20;58.90;;;;;;5005169;28;20036;-59
2023/04/29 03:12:53;;;;;;;2.35;1.50;;;19.20;58.80;;;;;;5002893;28;20049;-60
2023/04/29 03:15:19;;;;;;;2.83;1.90;;;19.20;58.80;;;;;;5021602;28;20532;-60
2023/04/29 03:17:45;;;;;;;1.70;1.48;;;19.20;58.80;;;;;;5021405;28;20037;-59
2023/04/29 03:20:11;;;;;;;2.95;2.05;;;19.20;58.70;;;;;;5016605;28;20479;-59
2023/04/29 03:22:36;;;;;;;1.42;1.33;;;19.20;58.70;;;;;;5020550;28;20036;-59
2023/04/29 03:25:02;;;;;;;2.30;2.08;;;19.20;58.60;;;;;;5017379;28;20021;-59
2023/04/29 03:27:28;;;;;;;4.32;2.17;;;19.20;58.60;;;;;;5019231;28;20030;-60
2023/04/29 03:29:53;;;;;;;2.85;1.60;;;19.20;58.50;;;;;;5020687;28;20080;-59
2023/04/29 03:32:18;;;;;;;1.63;1.40;;;19.20;58.50;;;;;;5021303;28;20037;-60
2023/04/29 03:34:44;;;;;;;2.30;1.60;;;19.20;59.10;;;;;;5020715;23;20040;-55
2023/04/29 03:37:09;;;;;;;1.83;1.70;;;19.30;58.60;;;;;;5017804;28;20168;-56
2023/04/29 03:39:35;;;;;;;1.60;1.50;;;19.30;58.50;;;;;;5022679;28;20033;-50
2023/04/29 03:42:01;;;;;;;2.55;1.60;;;19.30;58.50;;;;;;5018725;28;20065;-55
2023/04/29 03:44:28;;;;;;;2.08;1.80;;;19.30;58.50;;;;;;5019788;28;20057;-54
2023/04/29 03:46:53;;;;;;;2.65;1.77;;;19.20;58.40;;;;;;5016908;28;20033;-50
2023/04/29 03:49:19;;;;;;;1.88;1.65;;;19.30;58.40;;;;;;5022047;28;20026;-54
2023/04/29 03:51:44;;;;;;;1.80;1.70;;;19.30;58.50;;;;;;5019794;28;20038;-55
2023/04/29 03:54:11;;;;;;;3.60;2.13;;;19.30;58.40;;;;;;5001798;28;20662;-53
2023/04/29 03:56:37;;;;;;;2.30;1.48;;;19.30;58.40;;;;;;5019847;28;20537;-52
2023/04/29 03:59:03;;;;;;;2.38;1.80;;;19.30;58.40;;;;;;5017483;28;20037;-53
2023/04/29 04:01:28;;;;;;;1.80;1.70;;;19.30;58.50;;;;;;5019565;28;20041;-50
2023/04/29 04:03:54;;;;;;;2.92;1.80;;;19.30;58.40;;;;;;5003052;28;20044;-47
2023/04/29 04:06:19;;;;;;;1.52;1.20;;;19.30;58.30;;;;;;5017821;28;20037;-52
2023/04/29 04:08:45;;;;;;;1.92;1.55;;;19.30;58.30;;;;;;5016161;28;20037;-54
2023/04/29 04:11:13;;;;;;;1.40;1.30;;;19.30;58.40;;;;;;5020122;28;20072;-47
2023/04/29 04:13:41;;;;;;;1.83;1.42;;;19.30;58.30;;;;;;5018804;28;21678;-56
2023/04/29 04:16:06;;;;;;;1.90;1.70;;;19.30;58.30;;;;;;5019472;28;20038;-50
2023/04/29 04:18:32;;;;;;;1.98;1.63;;;19.30;58.30;;;;;;5017755;28;20054;-54
2023/04/29 04:21:03;;;;;;;1.90;1.58;;;19.30;58.40;;;;;;5013499;28;20108;-56
2023/04/29 04:23:29;;;;;;;1.48;1.30;;;19.30;58.30;;;;;;5020389;28;20042;-48
2023/04/29 04:25:54;;;;;;;1.95;1.50;;;19.30;58.40;;;;;;5002150;28;20072;-51
2023/04/29 04:28:20;;;;;;;2.00;1.75;;;19.30;58.30;;;;;;5015955;28;20473;-57
2023/04/29 04:30:45;;;;;;;1.52;1.40;;;19.30;58.40;;;;;;5019872;28;20506;-52
2023/04/29 04:33:11;;;;;;;1.83;1.63;;;19.30;58.40;;;;;;4998366;28;20036;-50
2023/04/29 04:35:36;;;;;;;1.92;1.35;;;19.30;58.30;;;;;;5018710;28;20030;-53
2023/04/29 04:38:02;;;;;;;2.42;1.55;;;19.30;58.40;;;;;;5019145;28;20030;-53
2023/04/29 04:40:27;;;;;;;2.00;1.52;;;19.30;58.50;;;;;;5019802;28;20044;-51
2023/04/29 04:42:53;;;;;;;3.33;1.50;;;19.30;58.50;;;;;;5020171;28;20530;-53
2023/04/29 04:45:18;;;;;;;2.40;1.35;;;19.20;58.40;;;;;;5020147;28;20801;-51
2023/04/29 04:47:44;;;;;;;1.75;1.27;;;19.30;58.50;;;;;;5019560;28;20039;-50
2023/04/29 04:50:09;;;;;;;1.92;1.40;;;19.30;58.50;;;;;;5018834;28;20117;-49
2023/04/29 04:52:35;;;;;;;1.83;1.55;;;19.20;58.40;;;;;;5019218;28;20687;-51
2023/04/29 04:55:01;;;;;;;2.00;1.58;;;19.30;58.50;;;;;;5020199;28;20577;-55
2023/04/29 04:57:26;;;;;;;1.55;1.45;;;19.30;58.50;;;;;;5000897;28;20037;-50
2023/04/29 04:59:52;;;;;;;2.30;1.52;;;19.30;58.50;;;;;;5018979;28;20021;-48
2023/04/29 05:02:17;;;;;;;3.50;1.25;;;19.30;58.50;;;;;;5001844;28;20041;-52
2023/04/29 05:04:43;;;;;;;2.58;1.40;;;19.30;58.50;;;;;;5018346;28;20029;-53
2023/04/29 05:07:09;;;;;;;2.03;1.63;;;19.30;58.50;;;;;;5016853;28;20048;-55
2023/04/29 05:09:35;;;;;;;1.85;1.40;;;19.30;58.50;;;;;;5016654;28;20403;-56
2023/04/29 05:12:00;;;;;;;1.67;1.58;;;19.30;58.50;;;;;;5019284;28;20048;-49
2023/04/29 05:14:26;;;;;;;1.90;1.70;;;19.20;58.40;;;;;;5018993;28;20033;-53
2023/04/29 05:16:52;;;;;;;2.10;1.55;;;19.30;58.50;;;;;;5016749;28;20568;-54
2023/04/29 05:19:18;;;;;;;1.45;1.20;;;19.30;58.50;;;;;;5018913;28;20049;-58
2023/04/29 05:21:44;;;;;;;2.05;1.30;;;19.20;58.50;;;;;;5017226;28;20030;-53
2023/04/29 05:24:09;;;;;;;1.70;1.45;;;19.30;58.50;;;;;;5019975;28;20052;-51
2023/04/29 05:26:35;;;;;;;1.35;1.23;;;19.30;58.50;;;;;;5019028;28;20034;-48
2023/04/29 05:29:00;;;;;;;1.42;1.30;;;19.30;59.10;;;;;;5018929;28;20057;-51
2023/04/29 05:31:27;;;;;;;1.85;1.50;;;19.30;58.40;;;;;;5018251;28;20111;-52
2023/04/29 05:33:52;;;;;;;1.83;1.48;;;19.30;58.40;;;;;;5019784;28;20057;-53
2023/04/29 05:36:18;;;;;;;1.30;1.20;;;19.30;58.40;;;;;;5020094;28;20063;-50
2023/04/29 05:38:44;;;;;;;1.80;1.60;;;19.30;58.30;;;;;;5016990;28;20025;-48
2023/04/29 05:41:10;;;;;;;1.50;1.40;;;19.30;58.40;;;;;;5016575;28;20026;-53
2023/04/29 05:43:35;;;;;;;1.83;1.20;;;19.30;58.40;;;;;;5018996;28;20042;-47
2023/04/29 05:46:01;;;;;;;1.35;1.23;;;19.30;58.30;;;;;;5019456;28;20112;-55
2023/04/29 05:48:27;;;;;;;2.85;1.30;;;19.30;58.30;;;;;;5012800;28;20029;-53
2023/04/29 05:50:53;;;;;;;1.75;1.52;;;19.30;58.40;;;;;;5018591;28;20030;-56
2023/04/29 05:53:18;;;;;;;1.35;1.25;;;19.30;58.40;;;;;;5019168;28;20538;-54
2023/04/29 05:55:45;;;;;;;1.60;1.50;;;19.30;58.40;;;;;;5018533;28;20653;-55
2023/04/29 05:58:11;;;;;;;2.05;1.30;;;19.30;58.40;;;;;;5017656;28;20060;-50
2023/04/29 06:00:37;;;;;;;1.83;1.60;;;19.30;58.40;;;;;;5018476;28;20069;-52
2023/04/29 06:03:02;;;;;;;1.95;1.25;;;19.30;58.40;;;;;;5018691;28;20064;-55
2023/04/29 06:05:28;;;;;;;1.40;1.30;;;19.30;58.40;;;;;;5016342;28;20037;-47
2023/04/29 06:07:53;;;;;;;2.10;1.27;;;19.30;58.50;;;;;;5017497;28;20064;-51
2023/04/29 06:10:19;;;;;;;1.45;1.35;;;19.30;58.40;;;;;;5018834;28;20108;-52
2023/04/29 06:12:45;;;;;;;1.58;1.33;;;19.30;58.40;;;;;;5001612;28;20026;-49
2023/04/29 06:15:11;;;;;;;2.03;1.73;;;19.30;58.40;;;;;;5018942;28;20061;-49
2023/04/29 06:17:36;;;;;;;1.45;1.35;;;19.30;58.40;;;;;;5013518;28;20060;-52
2023/04/29 06:20:02;;;;;;;1.95;1.85;;;19.30;58.50;;;;;;5015775;28;20033;-52
2023/04/29 06:22:28;;;;;;;2.28;1.40;;;19.30;58.40;;;;;;5018887;28;20117;-53
2023/04/29 06:24:53;;;;;;;2.20;2.00;;;19.30;58.50;;;;;;5020891;28;20739;-50
2023/04/29 06:27:18;;;;;;;2.90;2.28;;;19.30;58.50;;;;;;5020679;28;20082;-51
2023/04/29 06:29:44;;;;;;;3.63;1.60;;;19.30;58.60;;;;;;5019548;28;20052;-50
2023/04/29 06:32:09;;;;;;;1.98;1.77;;;19.30;58.80;;;;;;5019545;28;20029;-48
2023/04/29 06:34:35;;;;;;;3.97;1.73;;;19.20;58.70;;;;;;5018892;28;20034;-52
2023/04/29 06:37:01;;;;;;;7.18;2.05;;;19.30;58.80;;;;;;5017018;28;20041;-50
2023/04/29 06:39:26;;;;;;;7.63;2.15;;;19.20;58.90;;;;;;5017772;28;20038;-49
2023/04/29 06:41:52;;;;;;;2.92;1.75;;;19.20;58.90;;;;;;5018034;28;20033;-47
2023/04/29 06:44:18;;;;;;;5.43;2.00;;;19.20;59.00;;;;;;5017591;28;20026;-49
2023/04/29 06:46:43;;;;;;;7.03;2.08;;;19.20;59.10;;;;;;5018877;28;20036;-51
2023/04/29 06:49:09;;;;;;;4.60;1.70;;;19.20;59.70;;;;;;5017534;28;20056;-53
2023/04/29 06:51:36;;;;;;;5.47;3.03;;;19.20;59.10;;;;;;5019123;28;20037;-52
2023/04/29 06:54:02;;;;;;;10.10;4.93;;;19.20;59.10;;;;;;5020041;28;20030;-49
2023/04/29 06:56:28;;;;;;;13.15;7.15;;;19.20;59.20;;;;;;5018244;28;20076;-48
2023/04/29 06:58:54;;;;;;;15.18;7.95;;;19.20;59.20;;;;;;5018786;28;20094;-53
2023/04/29 07:01:20;;;;;;;17.30;9.55;;;19.20;59.20;;;;;;5019576;28;20767;-52
2023/04/29 07:03:45;;;;;;;16.08;8.75;;;19.20;59.20;;;;;;5019349;28;20037;-50
2023/04/29 07:06:11;;;;;;;17.25;9.55;;;19.20;59.10;;;;;;5018648;28;20037;-50
2023/04/29 07:08:37;;;;;;;20.27;10.10;;;19.20;59.10;;;;;;5017369;28;20036;-49
2023/04/29 07:11:02;;;;;;;18.83;9.45;;;19.20;59.10;;;;;;5021761;28;21290;-48
2023/04/29 07:13:28;;;;;;;15.20;9.40;;;19.20;59.00;;;;;;5019002;28;20037;-50
2023/04/29 07:15:54;;;;;;;22.80;11.32;;;19.20;59.00;;;;;;5022856;28;20067;-52
2023/04/29 07:18:19;;;;;;;17.58;9.68;;;19.20;58.90;;;;;;5021913;28;20398;-52
2023/04/29 07:20:46;;;;;;;17.80;10.00;;;19.20;58.90;;;;;;5020738;28;20077;-52
2023/04/29 07:23:13;;;;;;;17.65;9.00;;;19.20;58.90;;;;;;5021910;28;20067;-49
2023/04/29 07:25:39;;;;;;;14.05;8.60;;;19.20;58.90;;;;;;5021882;28;20513;-50
2023/04/29 07:28:05;;;;;;;12.50;8.70;;;19.20;58.80;;;;;;5021696;28;20519;-47
2023/04/29 07:30:31;;;;;;;13.57;7.97;;;19.20;58.70;;;;;;5020074;28;20065;-51
2023/04/29 07:32:56;;;;;;;19.10;10.10;;;19.20;58.60;;;;;;5022618;28;20017;-51
2023/04/29 07:35:22;;;;;;;14.15;8.32;;;19.30;58.60;;;;;;5003140;28;20030;-50
2023/04/29 07:37:48;;;;;;;15.85;9.02;;;19.30;58.70;;;;;;5017365;28;20063;-50
2023/04/29 07:40:13;;;;;;;13.68;8.55;;;19.30;58.60;;;;;;5003135;28;20739;-49
2023/04/29 07:42:39;;;;;;;14.98;8.23;;;19.30;58.50;;;;;;5022081;28;20040;-51
2023/04/29 07:45:05;;;;;;;10.98;7.88;;;19.30;58.50;;;;;;5022457;28;20029;-52
2023/04/29 07:47:30;;;;;;;13.90;7.88;;;19.30;58.40;;;;;;5017722;28;20049;-48
2023/04/29 07:49:56;;;;;;;14.15;8.13;;;19.30;58.40;;;;;;5019797;28;20055;-53
2023/04/29 07:52:22;;;;;;;15.02;8.57;;;19.30;58.40;;;;;;5022148;28;20034;-56
2023/04/29 07:54:47;;;;;;;15.73;8.13;;;19.30;58.50;;;;;;5021309;28;20034;-52
2023/04/29 07:57:13;;;;;;;12.73;8.05;;;19.30;58.40;;;;;;5021929;28;20036;-50
2023/04/29 07:59:38;;;;;;;11.85;7.63;;;19.30;58.40;;;;;;5020259;28;20033;-50
2023/04/29 08:02:04;;;;;;;11.52;7.35;;;19.30;58.40;;;;;;5021794;28;20447;-51
2023/04/29 08:04:29;;;;;;;12.88;7.38;;;19.30;58.40;;;;;;5021761;28;20029;-53
2023/04/29 08:06:55;;;;;;;11.63;7.05;;;19.30;58.40;;;;;;5021888;28;20037;-51
2023/04/29 08:09:20;;;;;;;13.27;7.72;;;19.30;58.30;;;;;;5020124;28;20890;-51
2023/04/29 08:11:46;;;;;;;13.98;7.20;;;19.30;58.30;;;;;;5020862;28;20769;-49
2023/04/29 08:14:11;;;;;;;12.23;8.40;;;19.30;58.30;;;;;;5000985;28;20061;-53
2023/04/29 08:16:37;;;;;;;11.00;6.82;;;19.30;58.30;;;;;;5014964;28;20060;-51
2023/04/29 08:19:02;;;;;;;10.10;6.32;;;19.30;58.40;;;;;;5018967;28;20034;-48
2023/04/29 08:21:30;;;;;;;10.38;6.43;;;19.30;58.40;;;;;;5020014;28;20030;-54
2023/04/29 08:23:56;;;;;;;11.68;7.50;;;19.30;58.60;;;;;;5021300;28;20029;-52
2023/04/29 08:26:21;;;;;;;13.35;7.68;;;19.20;58.60;;;;;;5022532;28;20036;-54
2023/04/29 08:28:47;;;;;;;10.80;6.82;;;19.20;58.70;;;;;;5021673;28;20033;-54
2023/04/29 08:31:20;;;;;;;10.50;7.65;;;19.20;58.70;;;;;;5022093;28;20327;-52
2023/04/29 08:33:45;;;;;;;13.25;7.93;;;19.20;58.80;;;;;;5019510;28;20029;-50
2023/04/29 08:36:11;;;;;;;16.92;10.38;;;19.20;59.00;;;;;;5009751;28;20107;-50
2023/04/29 08:38:37;;;;;;;19.23;10.45;;;19.20;59.10;;;;;;5019798;28;20820;-50
2023/04/29 08:41:02;;;;;;;20.77;12.02;;;19.20;59.30;;;;;;5021898;28;20394;-51
2023/04/29 08:43:28;;;;;;;24.02;13.18;;;19.20;59.50;;;;;;5019330;28;20045;-51
2023/04/29 08:45:56;;;;;;;28.25;15.02;;;19.20;60.00;;;;;;5020211;28;20088;-47
2023/04/29 08:48:22;;;;;;;30.67;15.07;;;19.10;60.30;;;;;;5017877;28;20128;-50
2023/04/29 08:50:47;;;;;;;32.15;15.65;;;19.10;60.80;;;;;;5001755;28;20937;-50
2023/04/29 08:53:13;;;;;;;35.95;15.02;;;19.10;61.10;;;;;;5003572;28;20415;-53
2023/04/29 08:55:46;;;;;;;28.60;13.35;;;19.10;61.30;;;;;;5019960;28;21118;-48
2023/04/29 08:58:13;;;;;;;30.95;12.73;;;19.20;61.70;;;;;;5018229;28;20048;-48
2023/04/29 09:00:43;;;;;;;25.33;10.98;;;19.10;61.60;;;;;;5019116;28;21098;-49
2023/04/29 09:03:33;;;;;;;26.83;11.98;;;19.20;61.70;;;;;;5017392;28;20053;-50
2023/04/29 09:06:00;;;;;;;21.67;9.77;;;19.20;61.80;;;;;;5019668;28;20029;-50
2023/04/29 09:08:26;;;;;;;22.75;9.52;;;19.20;62.00;;;;;;5018811;28;20034;-49
2023/04/29 09:10:53;;;;;;;17.17;7.35;;;19.20;61.80;;;;;;5020777;28;20025;-51
2023/04/29 09:13:26;;;;;;;15.07;7.40;;;19.20;61.60;;;;;;5021011;28;20045;-49
2023/04/29 09:15:52;;;;;;;13.95;7.07;;;19.30;61.60;;;;;;5018439;28;20036;-50
2023/04/29 09:18:45;;;;;;;13.73;5.93;;;19.30;61.40;;;;;;5018919;28;20029;-49
2023/04/29 09:21:24;;;;;;;12.50;7.40;;;19.30;61.40;;;;;;5019346;28;20082;-51
2023/04/29 09:23:52;;;;;;;15.88;5.85;;;19.30;61.20;;;;;;5020678;28;20037;-51
2023/04/29 09:26:18;;;;;;;8.80;4.50;;;19.40;61.40;;;;;;5020134;28;20035;-50
2023/04/29 09:28:43;;;;;;;16.65;5.13;;;19.30;61.40;;;;;;5018620;28;20041;-48
2023/04/29 09:31:10;;;;;;;11.82;4.82;;;19.40;61.40;;;;;;5009213;28;20406;-49
2023/04/29 09:33:56;;;;;;;9.73;3.90;;;19.40;61.10;;;;;;4997284;28;20418;-50
2023/04/29 09:36:41;;;;;;;8.20;3.83;;;19.40;61.00;;;;;;4979458;28;20519;-50
2023/04/29 09:39:11;;;;;;;9.87;3.97;;;19.40;60.90;;;;;;5034186;28;20506;-50
2023/04/29 09:41:39;;;;;;;7.90;3.50;;;19.40;60.90;;;;;;5039092;28;20086;-49
2023/04/29 09:44:06;;;;;;;7.35;3.05;;;19.40;60.80;;;;;;5039854;28;20032;-48
2023/04/29 09:46:32;;;;;;;5.97;3.95;;;19.40;60.70;;;;;;5038971;28;20126;-49
2023/04/29 09:48:59;;;;;;;7.50;3.47;;;19.50;60.60;;;;;;5039181;28;20055;-50
2023/04/29 09:51:24;;;;;;;7.18;3.40;;;19.50;60.60;;;;;;5037919;28;20036;-48
2023/04/29 09:53:51;;;;;;;4.10;2.75;;;19.50;60.60;;;;;;5039834;28;20048;-49
2023/04/29 09:56:17;;;;;;;5.55;2.85;;;19.50;60.50;;;;;;5034828;28;20036;-50
2023/04/29 09:58:42;;;;;;;8.80;2.40;;;19.50;60.50;;;;;;5036648;28;20129;-47
2023/04/29 10:01:09;;;;;;;6.35;2.78;;;19.50;60.60;;;;;;5039123;28;20024;-51
2023/04/29 10:03:38;;;;;;;8.05;2.60;;;19.60;60.60;;;;;;5038543;28;20036;-51
2023/04/29 10:06:05;;;;;;;8.40;2.50;;;19.60;60.70;;;;;;5038645;28;20063;-50
2023/04/29 10:08:32;;;;;;;5.32;2.22;;;19.60;60.60;;;;;;5033244;28;20040;-48
2023/04/29 10:11:04;;;;;;;8.98;2.42;;;19.60;60.60;;;;;;5020224;28;20677;-48
2023/04/29 10:13:33;;;;;;;5.82;2.03;;;19.60;60.90;;;;;;5035854;28;20543;-52
2023/04/29 10:16:28;;;;;;;8.68;2.75;;;19.70;60.60;;;;;;5034357;28;20042;-50
2023/04/29 10:18:55;;;;;;;5.10;2.90;;;19.70;60.60;;;;;;5031932;28;20112;-50
2023/04/29 10:21:28;;;;;;;7.38;2.33;;;19.70;60.80;;;;;;5039542;28;20033;-52
2023/04/29 10:23:57;;;;;;;6.15;2.00;;;19.70;60.60;;;;;;5037836;28;20037;-60
2023/04/29 10:26:27;;;;;;;4.68;2.15;;;19.70;60.60;;;;;;5039137;28;20025;-49
2023/04/29 10:28:56;;;;;;;7.90;2.55;;;19.70;60.60;;;;;;5039114;28;20033;-51
2023/04/29 10:31:26;;;;;;;6.18;2.35;;;19.70;60.50;;;;;;5042727;28;20036;-49
2023/04/29 10:33:56;;;;;;;4.28;2.30;;;19.70;60.60;;;;;;5012294;28;20036;-51
2023/04/29 10:36:22;;;;;;;7.18;2.50;;;19.70;60.50;;;;;;5039453;28;20037;-49
2023/04/29 10:38:52;;;;;;;3.92;2.17;;;19.70;60.50;;;;;;5037237;28;20033;-50
2023/04/29 10:41:25;;;;;;;5.03;2.60;;;19.70;60.40;;;;;;5038834;28;20040;-51
2023/04/29 10:43:51;;;;;;;3.83;2.30;;;19.80;60.40;;;;;;5040060;28;20496;-49
2023/04/29 10:46:19;;;;;;;7.22;2.45;;;19.80;60.50;;;;;;5042977;28;20167;-52
2023/04/29 10:48:46;;;;;;;3.38;2.13;;;19.70;60.40;;;;;;5040934;28;20061;-51
2023/04/29 10:51:11;;;;;;;3.90;2.53;;;19.70;60.40;;;;;;5042757;28;20041;-51
2023/04/29 10:54:00;;;;;;;5.35;2.75;;;19.70;60.40;;;;;;5041914;28;20041;-49
2023/04/29 10:56:49;;;;;;;7.00;2.95;;;19.70;60.40;;;;;;5040534;28;20030;-48
2023/04/29 10:59:18;;;;;;;9.60;3.55;;;19.70;60.40;;;;;;5038830;28;20056;-52
2023/04/29 11:01:45;;;;;;;6.68;3.17;;;19.70;60.30;;;;;;5041154;28;20037;-52
2023/04/29 11:04:11;;;;;;;5.05;2.72;;;19.70;60.30;;;;;;5042238;28;20118;-48
2023/04/29 11:06:40;;;;;;;6.78;3.65;;;19.70;60.30;;;;;;5041728;28;20037;-49
2023/04/29 11:09:09;;;;;;;5.22;3.50;;;19.70;60.10;;;;;;5041830;28;20060;-51
2023/04/29 11:11:42;;;;;;;4.75;3.28;;;19.80;60.20;;;;;;5041264;28;20043;-52
2023/04/29 11:14:10;;;;;;;5.53;3.53;;;19.80;60.20;;;;;;5041520;28;20036;-49
2023/04/29 11:16:37;;;;;;;6.53;3.42;;;19.80;60.10;;;;;;5041240;28;20343;-50
2023/04/29 11:19:11;;;;;;;4.30;3.40;;;19.70;60.10;;;;;;5024390;28;20032;-51
2023/04/29 11:21:36;;;;;;;5.15;3.53;;;19.70;60.00;;;;;;5037998;28;20563;-51
2023/04/29 11:24:05;;;;;;;4.40;4.00;;;19.70;60.00;;;;;;5042003;28;20078;-53
2023/04/29 11:26:31;;;;;;;3.90;3.60;;;19.80;60.00;;;;;;5040812;28;20120;-52
2023/04/29 11:28:59;;;;;;;4.95;3.92;;;19.80;60.00;;;;;;5040524;28;20502;-49
2023/04/29 11:31:35;;;;;;;4.88;3.92;;;19.70;59.80;;;;;;5041298;28;20115;-51
2023/04/29 11:34:02;;;;;;;;;;;19.70;59.90;;;;;;5021299;28;20486;-50
2023/04/29 11:36:31;;;;;;;5.30;4.03;;;19.80;59.90;;;;;;5040890;28;19920;-51
2023/04/29 11:38:59;;;;;;;4.47;4.07;;;19.70;59.90;;;;;;5042114;28;20108;-51
2023/04/29 11:41:25;;;;;;;6.25;4.35;;;19.80;60.00;;;;;;5040614;28;20562;-50
2023/04/29 11:43:56;;;;;;;4.13;3.47;;;19.80;59.90;;;;;;5040554;28;20389;-51
2023/04/29 11:46:22;;;;;;;4.80;4.35;;;19.80;59.90;;;;;;5041305;28;20033;-51
2023/04/29 11:48:48;;;;;;;5.03;4.60;;;19.80;59.90;;;;;;5039082;28;20099;-49
2023/04/29 11:51:16;;;;;;;6.28;4.78;;;19.80;59.90;;;;;;5040933;28;25562;-50
2023/04/29 11:53:42;;;;;;;6.13;5.18;;;19.80;60.00;;;;;;5040088;28;20131;-52
2023/04/29 11:56:09;;;;;;;8.20;5.78;;;19.80;60.00;;;;;;5041288;28;20148;-51
2023/04/29 11:58:35;;;;;;;11.90;6.85;;;19.80;60.00;;;;;;5037748;28;20040;-48
2023/04/29 12:01:03;;;;;;;8.95;6.70;;;19.70;59.90;;;;;;5041834;28;20029;-50
2023/04/29 12:03:30;;;;;;;10.35;8.40;;;19.70;59.90;;;;;;5040407;28;20037;-52
2023/04/29 12:05:56;;;;;;;11.68;7.85;;;19.70;59.80;;;;;;5039682;28;20037;-51
2023/04/29 12:08:26;;;;;;;13.00;10.70;;;19.70;59.80;;;;;;5040961;28;20037;-50
2023/04/29 12:10:54;;;;;;;15.02;12.77;;;19.70;59.70;;;;;;5039260;28;20032;-55
2023/04/29 12:13:22;;;;;;;18.55;15.57;;;19.70;59.70;;;;;;5022966;28;20112;-51
2023/04/29 12:15:49;;;;;;;18.55;16.42;;;19.70;59.70;;;;;;5039240;28;20049;-51
2023/04/29 12:18:17;;;;;;;23.50;18.52;;;19.70;59.70;;;;;;5040072;28;20049;-47
2023/04/29 12:20:43;;;;;;;23.23;19.17;;;19.80;59.70;;;;;;5038724;28;20167;-53
2023/04/29 12:23:13;;;;;;;22.58;19.33;;;19.70;59.60;;;;;;5040429;28;20487;-50
2023/04/29 12:25:42;;;;;;;44.85;38.05;;;19.80;59.70;;;;;;5038816;28;20603;-57
2023/04/29 12:28:11;;;;;;;71.97;60.05;;;19.70;59.70;;;;;;5035208;28;20024;-51
2023/04/29 12:30:37;;;;;;;84.53;73.28;;;19.70;59.90;;;;;;5034811;28;20028;-48
2023/04/29 12:33:03;;;;;;;92.15;76.00;;;19.70;60.10;;;;;;5039505;28;20422;-54
2023/04/29 12:35:28;;;;;;;80.10;68.40;;;19.70;60.30;;;;;;5040287;28;20416;-50
2023/04/29 12:37:56;;;;;;;73.93;61.42;;;19.70;60.40;;;;;;5039055;28;20032;-51
2023/04/29 12:40:23;;;;;;;65.88;53.17;;;19.70;60.40;;;;;;5013196;28;20033;-54
2023/04/29 12:42:49;;;;;;;63.97;48.90;;;19.60;60.40;;;;;;5038441;28;20040;-55
2023/04/29 12:45:33;;;;;;;46.10;41.00;;;19.60;60.40;;;;;;5040236;28;20037;-53
2023/04/29 12:48:00;;;;;;;39.70;34.85;;;19.60;60.60;;;;;;5039229;28;20041;-51